createdAt,value
2023-05-17T00:00:48.035Z,94895.00
2023-05-17T00:01:48.081Z,94894.00
2023-05-17T00:02:48.046Z,94895.00
2023-05-17T00:03:48.031Z,94897.00
2023-05-17T00:04:48.047Z,94896.00
2023-05-17T00:05:48.102Z,94897.00
2023-05-17T00:06:48.035Z,94899.00
2023-05-17T00:07:48.023Z,94899.00
2023-05-17T00:08:48.023Z,94898.00
2023-05-17T00:09:48.007Z,94898.00
2023-05-17T00:10:48.049Z,94899.00
2023-05-17T00:11:48.081Z,94899.00
2023-05-17T00:12:48.116Z,94903.00
2023-05-17T00:13:48.146Z,94901.00
2023-05-17T00:14:48.159Z,94901.00
2023-05-17T00:15:48.187Z,94902.00
2023-05-17T00:16:48.239Z,94903.00
2023-05-17T00:17:48.334Z,94900.00
2023-05-17T00:18:48.382Z,94903.00
2023-05-17T00:19:48.337Z,94903.00
2023-05-17T00:20:48.338Z,94903.00
2023-05-17T00:21:48.477Z,94901.00
2023-05-17T00:22:48.412Z,94900.00
2023-05-17T00:23:48.433Z,94902.00
2023-05-17T00:24:48.470Z,94903.00
2023-05-17T00:25:48.522Z,94906.00
2023-05-17T00:26:48.558Z,94905.00
2023-05-17T00:27:48.588Z,94908.00
2023-05-17T00:28:48.607Z,94908.00
2023-05-17T00:29:48.693Z,94909.00
2023-05-17T00:30:48.674Z,94909.00
2023-05-17T00:31:48.732Z,94908.00
2023-05-17T00:32:48.785Z,94908.00
2023-05-17T00:33:48.774Z,94908.00
2023-05-17T00:34:48.818Z,94909.00
2023-05-17T00:35:48.811Z,94907.00
2023-05-17T00:36:48.849Z,94908.00
2023-05-17T00:37:48.974Z,94908.00
2023-05-17T00:38:48.933Z,94907.00
2023-05-17T00:39:48.998Z,94909.00
2023-05-17T00:40:48.994Z,94910.00
2023-05-17T00:41:49.058Z,94910.00
2023-05-17T00:42:49.066Z,94909.00
2023-05-17T00:43:49.122Z,94910.00
2023-05-17T00:44:49.126Z,94907.00
2023-05-17T00:45:49.167Z,94907.00
2023-05-17T00:46:49.203Z,94907.00
2023-05-17T00:47:49.313Z,94908.00
2023-05-17T00:48:49.275Z,94908.00
2023-05-17T00:49:49.283Z,94909.00
2023-05-17T00:50:49.335Z,94910.00
2023-05-17T00:51:49.368Z,94910.00
2023-05-17T00:52:49.395Z,94912.00
2023-05-17T00:53:49.521Z,94913.00
2023-05-17T00:54:49.453Z,94913.00
2023-05-17T00:55:49.464Z,94914.00
2023-05-17T00:56:49.502Z,94913.00
2023-05-17T00:57:49.581Z,94912.00
2023-05-17T00:58:49.569Z,94913.00
2023-05-17T00:59:49.618Z,94914.00
2023-05-17T01:00:49.644Z,94912.00
2023-05-17T01:01:49.693Z,94912.00
2023-05-17T01:02:49.785Z,94913.00
2023-05-17T01:03:49.848Z,94914.00
2023-05-17T01:04:49.790Z,94915.00
2023-05-17T01:05:49.776Z,94914.00
2023-05-17T01:06:49.849Z,94914.00
2023-05-17T01:07:49.830Z,94914.00
2023-05-17T01:08:49.909Z,94914.00
2023-05-17T01:09:49.957Z,94914.00
2023-05-17T01:10:49.951Z,94912.00
2023-05-17T01:11:49.974Z,94914.00
2023-05-17T01:12:50.496Z,94914.00
2023-05-17T01:13:50.027Z,94914.00
2023-05-17T01:14:50.075Z,94914.00
2023-05-17T01:15:50.114Z,94915.00
2023-05-17T01:16:50.116Z,94914.00
2023-05-17T01:17:50.206Z,94915.00
2023-05-17T01:18:50.269Z,94915.00
2023-05-17T01:19:50.364Z,94915.00
2023-05-17T01:20:50.190Z,94917.00
2023-05-17T01:21:50.257Z,94920.00
2023-05-17T01:22:50.289Z,94920.00
2023-05-17T01:23:50.311Z,94923.00
2023-05-17T01:24:50.327Z,94925.00
2023-05-17T01:25:50.493Z,94925.00
2023-05-17T01:26:50.377Z,94925.00
2023-05-17T01:27:50.439Z,94926.00
2023-05-17T01:28:50.470Z,94927.00
2023-05-17T01:29:50.488Z,94927.00
2023-05-17T01:30:50.547Z,94930.00
2023-05-17T01:31:50.572Z,94930.00
2023-05-17T01:32:50.641Z,94931.00
2023-05-17T01:33:50.784Z,94931.00
2023-05-17T01:34:50.656Z,94930.00
2023-05-17T01:35:50.675Z,94930.00
2023-05-17T01:36:50.727Z,94932.00
2023-05-17T01:37:50.783Z,94933.00
2023-05-17T01:38:50.790Z,94933.00
2023-05-17T01:39:50.841Z,94932.00
2023-05-17T01:40:50.877Z,94934.00
2023-05-17T01:41:50.976Z,94934.00
2023-05-17T01:42:50.953Z,94934.00
2023-05-17T01:43:50.950Z,94935.00
2023-05-17T01:44:51.011Z,94935.00
2023-05-17T01:45:51.033Z,94935.00
2023-05-17T01:46:51.036Z,94935.00
2023-05-17T01:47:51.128Z,94937.00
2023-05-17T01:48:51.183Z,94938.00
2023-05-17T01:49:51.195Z,94938.00
2023-05-17T01:50:51.189Z,94939.00
2023-05-17T01:51:51.247Z,94939.00
2023-05-17T01:52:51.277Z,94940.00
2023-05-17T01:53:51.328Z,94938.00
2023-05-17T01:54:51.352Z,94939.00
2023-05-17T01:55:51.400Z,94942.00
2023-05-17T01:56:51.445Z,94943.00
2023-05-17T01:57:51.522Z,94944.00
2023-05-17T01:58:51.523Z,94947.00
2023-05-17T01:59:51.561Z,94947.00
2023-05-17T02:00:51.591Z,94947.00
2023-05-17T02:01:51.587Z,94946.00
2023-05-17T02:02:51.671Z,94948.00
2023-05-17T02:03:51.707Z,94948.00
2023-05-17T02:04:51.783Z,94945.00
2023-05-17T02:05:51.757Z,94948.00
2023-05-17T02:06:51.792Z,94949.00
2023-05-17T02:07:51.856Z,94951.00
2023-05-17T02:08:51.870Z,94950.00
2023-05-17T02:09:51.897Z,94953.00
2023-05-17T02:10:51.950Z,94953.00
2023-05-17T02:11:51.966Z,94952.00
2023-05-17T02:12:52.024Z,94952.00
2023-05-17T02:13:52.204Z,94956.00
2023-05-17T02:14:52.127Z,94956.00
2023-05-17T02:15:52.166Z,94958.00
2023-05-17T02:16:52.192Z,94958.00
2023-05-17T02:17:52.287Z,94959.00
2023-05-17T02:18:52.325Z,94961.00
2023-05-17T02:19:52.315Z,94963.00
2023-05-17T02:20:52.352Z,94964.00
2023-05-17T02:21:52.363Z,94965.00
2023-05-17T02:22:52.402Z,94964.00
2023-05-17T02:23:52.451Z,94964.00
2023-05-17T02:24:52.496Z,94965.00
2023-05-17T02:25:52.498Z,94967.00
2023-05-17T02:26:52.538Z,94967.00
2023-05-17T02:27:52.589Z,94968.00
2023-05-17T02:28:52.594Z,94968.00
2023-05-17T02:29:52.759Z,94967.00
2023-05-17T02:30:52.661Z,94970.00
2023-05-17T02:31:52.710Z,94969.00
2023-05-17T02:32:52.822Z,94971.00
2023-05-17T02:33:52.876Z,94973.00
2023-05-17T02:34:52.835Z,94976.00
2023-05-17T02:35:52.847Z,94976.00
2023-05-17T02:36:52.870Z,94977.00
2023-05-17T02:37:52.896Z,94977.00
2023-05-17T02:38:52.935Z,94982.00
2023-05-17T02:39:52.978Z,94986.00
2023-05-17T02:40:52.983Z,94985.00
2023-05-17T02:41:53.015Z,94985.00
2023-05-17T02:42:53.062Z,94990.00
2023-05-17T02:43:53.112Z,94991.00
2023-05-17T02:44:53.224Z,94990.00
2023-05-17T02:45:53.222Z,94991.00
2023-05-17T02:46:53.211Z,94991.00
2023-05-17T02:47:53.264Z,94994.00
2023-05-17T02:48:53.255Z,94996.00
2023-05-17T02:49:53.271Z,95000.00
2023-05-17T02:50:53.295Z,94998.00
2023-05-17T02:51:53.332Z,95003.00
2023-05-17T02:52:53.371Z,95003.00
2023-05-17T02:53:53.410Z,95007.00
2023-05-17T02:54:53.402Z,95009.00
2023-05-17T02:55:53.441Z,95009.00
2023-05-17T02:56:53.549Z,95009.00
2023-05-17T02:57:53.528Z,95010.00
2023-05-17T02:58:53.557Z,95011.00
2023-05-17T02:59:53.583Z,95013.00
2023-05-17T03:00:53.635Z,95015.00
2023-05-17T03:01:53.772Z,95019.00
2023-05-17T03:02:53.734Z,95020.00
2023-05-17T03:03:53.843Z,95022.00
2023-05-17T03:04:53.791Z,95025.00
2023-05-17T03:05:53.796Z,95026.00
2023-05-17T03:06:53.799Z,95029.00
2023-05-17T03:07:53.848Z,95030.00
2023-05-17T03:08:53.872Z,95031.00
2023-05-17T03:09:53.904Z,95034.00
2023-05-17T03:10:53.952Z,95034.00
2023-05-17T03:11:53.997Z,95035.00
2023-05-17T03:12:54.011Z,95039.00
2023-05-17T03:13:54.051Z,95040.00
2023-05-17T03:14:54.087Z,95041.00
2023-05-17T03:15:54.138Z,95042.00
2023-05-17T03:16:54.158Z,95041.00
2023-05-17T03:17:54.443Z,95045.00
2023-05-17T03:18:54.460Z,95044.00
2023-05-17T03:19:54.370Z,95047.00
2023-05-17T03:20:54.334Z,95049.00
2023-05-17T03:21:54.342Z,95048.00
2023-05-17T03:22:54.368Z,95051.00
2023-05-17T03:23:54.409Z,95051.00
2023-05-17T03:24:54.441Z,95053.00
2023-05-17T03:25:54.475Z,95052.00
2023-05-17T03:26:54.562Z,95054.00
2023-05-17T03:27:54.658Z,95055.00
2023-05-17T03:28:54.591Z,95055.00
2023-05-17T03:29:54.660Z,95055.00
2023-05-17T03:30:54.713Z,95056.00
2023-05-17T03:31:54.734Z,95057.00
2023-05-17T03:32:54.878Z,95058.00
2023-05-17T03:33:54.922Z,95058.00
2023-05-17T03:34:54.842Z,95062.00
2023-05-17T03:35:54.861Z,95061.00
2023-05-17T03:36:54.933Z,95061.00
2023-05-17T03:37:55.002Z,95065.00
2023-05-17T03:38:55.011Z,95067.00
2023-05-17T03:39:55.066Z,95072.00
2023-05-17T03:40:55.120Z,95072.00
2023-05-17T03:41:55.145Z,95074.00
2023-05-17T03:42:55.183Z,95075.00
2023-05-17T03:43:55.244Z,95076.00
2023-05-17T03:44:55.280Z,95079.00
2023-05-17T03:45:55.317Z,95078.00
2023-05-17T03:46:55.373Z,95079.00
2023-05-17T03:47:55.428Z,95079.00
2023-05-17T03:48:55.468Z,95083.00
2023-05-17T03:49:55.506Z,95083.00
2023-05-17T03:50:55.464Z,95086.00
2023-05-17T03:51:55.554Z,95085.00
2023-05-17T03:52:55.572Z,95088.00
2023-05-17T03:53:55.616Z,95087.00
2023-05-17T03:54:55.651Z,95088.00
2023-05-17T03:55:55.689Z,95090.00
2023-05-17T03:56:55.685Z,95093.00
2023-05-17T03:57:55.766Z,95092.00
2023-05-17T03:58:55.780Z,95092.00
2023-05-17T03:59:55.812Z,95096.00
2023-05-17T04:00:55.854Z,95095.00
2023-05-17T04:01:55.905Z,95094.00
2023-05-17T04:02:55.997Z,95096.00
2023-05-17T04:03:56.020Z,95097.00
2023-05-17T04:04:56.614Z,95099.00
2023-05-17T04:05:56.294Z,95102.00
2023-05-17T04:06:56.124Z,95101.00
2023-05-17T04:07:56.162Z,95104.00
2023-05-17T04:08:56.204Z,95103.00
2023-05-17T04:09:56.227Z,95106.00
2023-05-17T04:10:56.246Z,95106.00
2023-05-17T04:11:56.294Z,95108.00
2023-05-17T04:12:56.360Z,95109.00
2023-05-17T04:13:56.393Z,95110.00
2023-05-17T04:14:56.441Z,95110.00
2023-05-17T04:15:56.507Z,95111.00
2023-05-17T04:16:56.550Z,95108.00
2023-05-17T04:17:56.661Z,95107.00
2023-05-17T04:18:56.704Z,95107.00
2023-05-17T04:19:56.763Z,95108.00
2023-05-17T04:20:56.703Z,95107.00
2023-05-17T04:21:57.701Z,95109.00
2023-05-17T04:22:56.802Z,95108.00
2023-05-17T04:23:56.826Z,95110.00
2023-05-17T04:24:56.868Z,95111.00
2023-05-17T04:25:56.890Z,95114.00
2023-05-17T04:26:56.949Z,95113.00
2023-05-17T04:27:56.968Z,95116.00
2023-05-17T04:28:57.028Z,95116.00
2023-05-17T04:29:57.035Z,95119.00
2023-05-17T04:30:57.072Z,95116.00
2023-05-17T04:31:57.125Z,95118.00
2023-05-17T04:32:57.235Z,95118.00
2023-05-17T04:33:57.231Z,95121.00
2023-05-17T04:34:57.224Z,95122.00
2023-05-17T04:35:57.296Z,95124.00
2023-05-17T04:36:57.320Z,95125.00
2023-05-17T04:37:57.403Z,95128.00
2023-05-17T04:38:57.389Z,95128.00
2023-05-17T04:39:57.408Z,95131.00
2023-05-17T04:40:57.422Z,95132.00
2023-05-17T04:41:57.493Z,95133.00
2023-05-17T04:42:57.531Z,95134.00
2023-05-17T04:43:57.519Z,95137.00
2023-05-17T04:44:57.604Z,95136.00
2023-05-17T04:45:57.606Z,95139.00
2023-05-17T04:46:57.669Z,95136.00
2023-05-17T04:47:57.753Z,95137.00
2023-05-17T04:48:57.788Z,95139.00
2023-05-17T04:49:57.751Z,95138.00
2023-05-17T04:50:57.800Z,95139.00
2023-05-17T04:51:57.820Z,95139.00
2023-05-17T04:52:57.894Z,95139.00
2023-05-17T04:53:57.998Z,95139.00
2023-05-17T04:54:57.969Z,95138.00
2023-05-17T04:55:58.010Z,95138.00
2023-05-17T04:56:58.066Z,95142.00
2023-05-17T04:57:58.098Z,95141.00
2023-05-17T04:58:58.113Z,95140.00
2023-05-17T04:59:58.189Z,95142.00
2023-05-17T05:00:59.046Z,95142.00
2023-05-17T05:01:58.242Z,95143.00
2023-05-17T05:02:58.283Z,95147.00
2023-05-17T05:03:58.394Z,95147.00
2023-05-17T05:04:58.432Z,95149.00
2023-05-17T05:05:58.421Z,95151.00
2023-05-17T05:06:58.448Z,95150.00
2023-05-17T05:07:58.514Z,95154.00
2023-05-17T05:08:58.519Z,95156.00
2023-05-17T05:09:58.653Z,95159.00
2023-05-17T05:10:58.618Z,95160.00
2023-05-17T05:11:58.674Z,95161.00
2023-05-17T05:12:58.697Z,95162.00
2023-05-17T05:13:58.764Z,95165.00
2023-05-17T05:15:00.990Z,95164.00
2023-05-17T05:15:58.928Z,95164.00
2023-05-17T05:16:58.969Z,95167.00
2023-05-17T05:17:59.056Z,95166.00
2023-05-17T05:18:59.275Z,95167.00
2023-05-17T05:19:59.207Z,95170.00
2023-05-17T05:20:59.109Z,95170.00
2023-05-17T05:21:59.148Z,95173.00
2023-05-17T05:22:59.191Z,95177.00
2023-05-17T05:23:59.196Z,95177.00
2023-05-17T05:24:59.222Z,95180.00
2023-05-17T05:25:59.349Z,95181.00
2023-05-17T05:26:59.370Z,95181.00
2023-05-17T05:27:59.338Z,95181.00
2023-05-17T05:28:59.418Z,95182.00
2023-05-17T05:29:59.416Z,95183.00
2023-05-17T05:30:59.493Z,95185.00
2023-05-17T05:31:59.500Z,95182.00
2023-05-17T05:33:00.135Z,95183.00
2023-05-17T05:33:59.587Z,95184.00
2023-05-17T05:34:59.608Z,95184.00
2023-05-17T05:35:59.637Z,95181.00
2023-05-17T05:36:59.725Z,95185.00
2023-05-17T05:37:59.722Z,95183.00
2023-05-17T05:38:59.836Z,95181.00
2023-05-17T05:39:59.781Z,95182.00
2023-05-17T05:40:59.817Z,95183.00
2023-05-17T05:41:59.946Z,95182.00
2023-05-17T05:42:59.904Z,95184.00
2023-05-17T05:43:59.944Z,95185.00
2023-05-17T05:45:00.018Z,95187.00
2023-05-17T05:46:00.013Z,95189.00
2023-05-17T05:47:00.047Z,95190.00
2023-05-17T05:48:00.189Z,95193.00
2023-05-17T05:49:00.268Z,95193.00
2023-05-17T05:50:00.158Z,95197.00
2023-05-17T05:51:00.191Z,95194.00
2023-05-17T05:52:00.217Z,95194.00
2023-05-17T05:53:10.949Z,95194.00
2023-05-17T05:54:01.326Z,95193.00
2023-05-17T05:55:00.196Z,95198.00
2023-05-17T05:56:00.201Z,95197.00
2023-05-17T05:57:00.238Z,95200.00
2023-05-17T05:58:00.345Z,95203.00
2023-05-17T05:59:00.218Z,95202.00
2023-05-17T06:00:00.178Z,95203.00
2023-05-17T06:01:00.183Z,95205.00
2023-05-17T06:02:00.155Z,95206.00
2023-05-17T06:03:00.262Z,95207.00
2023-05-17T06:04:00.176Z,95207.00
2023-05-17T06:05:00.183Z,95208.00
2023-05-17T06:06:00.221Z,95205.00
2023-05-17T06:07:00.210Z,95207.00
2023-05-17T06:08:00.201Z,95205.00
2023-05-17T06:09:00.121Z,95210.00
2023-05-17T06:10:00.142Z,95210.00
2023-05-17T06:11:00.133Z,95210.00
2023-05-17T06:12:00.138Z,95212.00
2023-05-17T06:13:00.142Z,95213.00
2023-05-17T06:14:00.209Z,95214.00
2023-05-17T06:15:00.108Z,95217.00
2023-05-17T06:16:00.277Z,95216.00
2023-05-17T06:17:00.093Z,95216.00
2023-05-17T06:18:00.225Z,95218.00
2023-05-17T06:19:00.165Z,95215.00
2023-05-17T06:20:00.217Z,95217.00
2023-05-17T06:21:00.172Z,95216.00
2023-05-17T06:22:00.208Z,95215.00
2023-05-17T06:23:00.310Z,95216.00
2023-05-17T06:24:01.757Z,95218.00
2023-05-17T06:25:00.371Z,95219.00
2023-05-17T06:26:00.457Z,95220.00
2023-05-17T06:27:00.514Z,95219.00
2023-05-17T06:28:00.597Z,95220.00
2023-05-17T06:29:00.641Z,95221.00
2023-05-17T06:30:00.685Z,95222.00
2023-05-17T06:31:00.765Z,95222.00
2023-05-17T06:32:00.847Z,95223.00
2023-05-17T06:33:01.026Z,95225.00
2023-05-17T06:34:00.965Z,95225.00
2023-05-17T06:35:00.977Z,95226.00
2023-05-17T06:37:01.100Z,95229.00
2023-05-17T06:38:01.118Z,95231.00
2023-05-17T06:39:01.180Z,95233.00
2023-05-17T06:40:10.238Z,95234.00
2023-05-17T06:41:02.185Z,95235.00
2023-05-17T06:42:01.202Z,95234.00
2023-05-17T06:43:01.232Z,95239.00
2023-05-17T06:44:01.208Z,95239.00
2023-05-17T06:45:01.175Z,95239.00
2023-05-17T06:46:01.274Z,95240.00
2023-05-17T06:47:01.203Z,95243.00
2023-05-17T06:48:01.227Z,95237.00
2023-05-17T06:49:01.258Z,95244.00
2023-05-17T06:50:01.201Z,95246.00
2023-05-17T06:51:01.137Z,95244.00
2023-05-17T06:52:01.145Z,95242.00
2023-05-17T06:53:01.137Z,95243.00
2023-05-17T06:54:01.106Z,95244.00
2023-05-17T06:55:01.133Z,95242.00
2023-05-17T06:56:01.159Z,95241.00
2023-05-17T06:57:01.227Z,95242.00
2023-05-17T06:58:01.279Z,95242.00
2023-05-17T06:59:01.291Z,95242.00
2023-05-17T07:00:01.326Z,95242.00
2023-05-17T07:01:01.288Z,95242.00
2023-05-17T07:02:01.499Z,95243.00
2023-05-17T07:03:01.415Z,95245.00
2023-05-17T07:04:01.423Z,95250.00
2023-05-17T07:05:01.430Z,95249.00
2023-05-17T07:06:01.362Z,95250.00
2023-05-17T07:07:01.366Z,95251.00
2023-05-17T07:08:01.444Z,95250.00
2023-05-17T07:09:01.525Z,95253.00
2023-05-17T07:10:01.564Z,95254.00
2023-05-17T07:11:01.594Z,95254.00
2023-05-17T07:12:01.661Z,95255.00
2023-05-17T07:13:01.682Z,95257.00
2023-05-17T07:14:01.746Z,95257.00
2023-05-17T07:15:01.735Z,95259.00
2023-05-17T07:16:01.784Z,95258.00
2023-05-17T07:17:01.789Z,95260.00
2023-05-17T07:18:02.088Z,95265.00
2023-05-17T07:19:01.886Z,95265.00
2023-05-17T07:20:01.988Z,95266.00
2023-05-17T07:21:01.848Z,95271.00
2023-05-17T07:22:01.845Z,95269.00
2023-05-17T07:23:01.863Z,95271.00
2023-05-17T07:24:01.868Z,95269.00
2023-05-17T07:25:01.921Z,95268.00
2023-05-17T07:26:01.872Z,95269.00
2023-05-17T07:27:01.872Z,95267.00
2023-05-17T07:28:02.594Z,95269.00
2023-05-17T07:29:01.925Z,95271.00
2023-05-17T07:30:01.985Z,95270.00
2023-05-17T07:31:02.009Z,95271.00
2023-05-17T07:32:02.077Z,95273.00
2023-05-17T07:33:02.382Z,95274.00
2023-05-17T07:34:02.339Z,95274.00
2023-05-17T07:35:02.295Z,95275.00
2023-05-17T07:36:02.340Z,95277.00
2023-05-17T07:37:02.382Z,95276.00
2023-05-17T07:38:02.438Z,95277.00
2023-05-17T07:39:02.548Z,95278.00
2023-05-17T07:40:02.613Z,95277.00
2023-05-17T07:41:02.608Z,95280.00
2023-05-17T07:42:05.195Z,95281.00
2023-05-17T07:43:02.647Z,95280.00
2023-05-17T07:44:02.646Z,95281.00
2023-05-17T07:45:02.680Z,95281.00
2023-05-17T07:46:02.637Z,95278.00
2023-05-17T07:47:02.667Z,95280.00
2023-05-17T07:48:02.761Z,95276.00
2023-05-17T07:49:02.753Z,95275.00
2023-05-17T07:50:02.824Z,95273.00
2023-05-17T07:51:02.661Z,95272.00
2023-05-17T07:52:02.628Z,95277.00
2023-05-17T07:53:02.617Z,95276.00
2023-05-17T07:54:02.635Z,95275.00
2023-05-17T07:55:02.605Z,95273.00
2023-05-17T07:56:02.571Z,95272.00
2023-05-17T07:57:02.633Z,95275.00
2023-05-17T07:58:02.604Z,95275.00
2023-05-17T07:59:02.631Z,95276.00
2023-05-17T08:00:02.606Z,95277.00
2023-05-17T08:01:02.523Z,95278.00
2023-05-17T08:02:02.549Z,95277.00
2023-05-17T08:03:02.587Z,95278.00
2023-05-17T08:04:02.577Z,95278.00
2023-05-17T08:05:02.600Z,95277.00
2023-05-17T08:06:02.552Z,95279.00
2023-05-17T08:07:02.537Z,95278.00
2023-05-17T08:08:02.484Z,95280.00
2023-05-17T08:09:02.640Z,95281.00
2023-05-17T08:10:02.500Z,95281.00
2023-05-17T08:11:02.477Z,95284.00
2023-05-17T08:12:02.455Z,95286.00
2023-05-17T08:13:02.475Z,95286.00
2023-05-17T08:14:02.429Z,95289.00
2023-05-17T08:15:02.432Z,95289.00
2023-05-17T08:16:12.592Z,95289.00
2023-05-17T08:17:03.433Z,95292.00
2023-05-17T08:18:04.834Z,95292.00
2023-05-17T08:19:02.825Z,95293.00
2023-05-17T08:20:02.687Z,95293.00
2023-05-17T08:21:02.664Z,95292.00
2023-05-17T08:22:02.677Z,95294.00
2023-05-17T08:23:02.771Z,95296.00
2023-05-17T08:24:04.092Z,95297.00
2023-05-17T08:25:02.776Z,95298.00
2023-05-17T08:26:02.763Z,95299.00
2023-05-17T08:27:02.793Z,95301.00
2023-05-17T08:28:02.802Z,95303.00
2023-05-17T08:29:02.820Z,95304.00
2023-05-17T08:30:05.364Z,95306.00
2023-05-17T08:31:02.791Z,95308.00
2023-05-17T08:32:02.807Z,95308.00
2023-05-17T08:33:02.968Z,95310.00
2023-05-17T08:34:02.832Z,95312.00
2023-05-17T08:35:02.798Z,95315.00
2023-05-17T08:36:02.776Z,95315.00
2023-05-17T08:37:02.815Z,95318.00
2023-05-17T08:38:02.797Z,95322.00
2023-05-17T08:39:02.787Z,95325.00
2023-05-17T08:40:02.786Z,95323.00
2023-05-17T08:41:02.743Z,95327.00
2023-05-17T08:42:02.736Z,95330.00
2023-05-17T08:43:02.781Z,95333.00
2023-05-17T08:44:02.729Z,95331.00
2023-05-17T08:45:02.702Z,95333.00
2023-05-17T08:46:02.704Z,95338.00
2023-05-17T08:47:02.747Z,95339.00
2023-05-17T08:48:02.739Z,95337.00
2023-05-17T08:49:02.934Z,95338.00
2023-05-17T08:50:02.654Z,95340.00
2023-05-17T08:51:02.661Z,95344.00
2023-05-17T08:52:02.655Z,95343.00
2023-05-17T08:53:02.711Z,95345.00
2023-05-17T08:54:02.808Z,95345.00
2023-05-17T08:55:02.720Z,95344.00
2023-05-17T08:56:02.737Z,95344.00
2023-05-17T08:57:02.621Z,95345.00
2023-05-17T08:58:02.688Z,95343.00
2023-05-17T08:59:02.649Z,95342.00
2023-05-17T09:00:02.589Z,95343.00
2023-05-17T09:01:02.593Z,95345.00
2023-05-17T09:02:02.626Z,95345.00
2023-05-17T09:03:02.779Z,95347.00
2023-05-17T09:04:02.570Z,95348.00
2023-05-17T09:05:02.728Z,95348.00
2023-05-17T09:06:02.616Z,95352.00
2023-05-17T09:07:02.569Z,95355.00
2023-05-17T09:08:02.551Z,95355.00
2023-05-17T09:09:02.535Z,95358.00
2023-05-17T09:10:02.529Z,95357.00
2023-05-17T09:11:02.537Z,95359.00
2023-05-17T09:12:02.523Z,95360.00
2023-05-17T09:13:02.513Z,95362.00
2023-05-17T09:14:02.500Z,95363.00
2023-05-17T09:15:02.512Z,95363.00
2023-05-17T09:16:02.510Z,95368.00
2023-05-17T09:17:02.507Z,95366.00
2023-05-17T09:18:02.659Z,95371.00
2023-05-17T09:19:02.741Z,95372.00
2023-05-17T09:20:02.790Z,95369.00
2023-05-17T09:21:02.692Z,95370.00
2023-05-17T09:22:02.816Z,95372.00
2023-05-17T09:23:02.796Z,95374.00
2023-05-17T09:25:02.829Z,95376.00
2023-05-17T09:26:02.808Z,95378.00
2023-05-17T09:27:02.886Z,95380.00
2023-05-17T09:28:02.821Z,95382.00
2023-05-17T09:29:02.814Z,95384.00
2023-05-17T09:30:02.811Z,95384.00
2023-05-17T09:31:02.810Z,95384.00
2023-05-17T09:32:02.803Z,95387.00
2023-05-17T09:33:02.786Z,95386.00
2023-05-17T09:34:02.839Z,95381.00
2023-05-17T09:35:02.760Z,95385.00
2023-05-17T09:36:02.729Z,95384.00
2023-05-17T09:37:02.782Z,95387.00
2023-05-17T09:38:02.747Z,95385.00
2023-05-17T09:39:02.731Z,95384.00
2023-05-17T09:40:02.739Z,95386.00
2023-05-17T09:41:02.696Z,95388.00
2023-05-17T09:42:02.767Z,95388.00
2023-05-17T09:43:02.742Z,95390.00
2023-05-17T09:44:02.691Z,95392.00
2023-05-17T09:45:02.782Z,95392.00
2023-05-17T09:46:02.698Z,95391.00
2023-05-17T09:47:02.683Z,95394.00
2023-05-17T09:48:02.761Z,95393.00
2023-05-17T09:49:02.871Z,95394.00
2023-05-17T09:50:02.782Z,95393.00
2023-05-17T09:51:02.662Z,95397.00
2023-05-17T09:52:02.664Z,95396.00
2023-05-17T09:53:02.642Z,95393.00
2023-05-17T09:54:02.628Z,95395.00
2023-05-17T09:55:02.658Z,95397.00
2023-05-17T09:56:02.628Z,95397.00
2023-05-17T09:57:02.611Z,95395.00
2023-05-17T09:58:02.611Z,95396.00
2023-05-17T09:59:02.687Z,95397.00
2023-05-17T10:00:02.597Z,95398.00
2023-05-17T10:01:02.607Z,95396.00
2023-05-17T10:02:02.566Z,95397.00
2023-05-17T10:03:02.749Z,95395.00
2023-05-17T10:04:02.781Z,95400.00
2023-05-17T10:05:02.628Z,95399.00
2023-05-17T10:06:02.571Z,95397.00
2023-05-17T10:07:02.557Z,95399.00
2023-05-17T10:08:02.521Z,95397.00
2023-05-17T10:09:02.532Z,95397.00
2023-05-17T10:10:02.530Z,95398.00
2023-05-17T10:11:02.523Z,95396.00
2023-05-17T10:12:02.544Z,95395.00
2023-05-17T10:13:02.516Z,95397.00
2023-05-17T10:14:02.543Z,95396.00
2023-05-17T10:15:02.531Z,95396.00
2023-05-17T10:16:02.506Z,95396.00
2023-05-17T10:17:02.536Z,95397.00
2023-05-17T10:18:02.566Z,95395.00
2023-05-17T10:19:02.516Z,95396.00
2023-05-17T10:20:02.562Z,95396.00
2023-05-17T10:21:03.101Z,95399.00
2023-05-17T10:22:18.792Z,95398.00
2023-05-17T10:23:03.437Z,95397.00
2023-05-17T10:24:02.423Z,95397.00
2023-05-17T10:25:02.432Z,95398.00
2023-05-17T10:26:02.424Z,95398.00
2023-05-17T10:27:02.422Z,95397.00
2023-05-17T10:28:02.415Z,95397.00
2023-05-17T10:29:02.421Z,95393.00
2023-05-17T10:30:02.789Z,95395.00
2023-05-17T10:31:02.389Z,95394.00
2023-05-17T10:32:02.388Z,95396.00
2023-05-17T10:33:02.580Z,95395.00
2023-05-17T10:34:02.440Z,95398.00
2023-05-17T10:35:11.486Z,95402.00
2023-05-17T10:36:03.364Z,95404.00
2023-05-17T10:37:02.358Z,95400.00
2023-05-17T10:38:02.353Z,95400.00
2023-05-17T10:39:02.336Z,95400.00
2023-05-17T10:40:02.332Z,95398.00
2023-05-17T10:41:02.380Z,95397.00
2023-05-17T10:42:14.435Z,95396.00
2023-05-17T10:43:03.322Z,95396.00
2023-05-17T10:44:02.307Z,95394.00
2023-05-17T10:45:02.314Z,95394.00
2023-05-17T10:46:02.305Z,95395.00
2023-05-17T10:47:02.284Z,95395.00
2023-05-17T10:48:02.362Z,95394.00
2023-05-17T10:49:02.389Z,95395.00
2023-05-17T10:50:02.298Z,95394.00
2023-05-17T10:51:02.267Z,95394.00
2023-05-17T10:52:02.240Z,95391.00
2023-05-17T10:53:02.217Z,95393.00
2023-05-17T10:54:02.238Z,95390.00
2023-05-17T10:55:02.246Z,95390.00
2023-05-17T10:56:02.238Z,95393.00
2023-05-17T10:57:02.236Z,95391.00
2023-05-17T10:58:02.217Z,95391.00
2023-05-17T10:59:02.227Z,95389.00
2023-05-17T11:00:02.214Z,95392.00
2023-05-17T11:01:02.239Z,95392.00
2023-05-17T11:02:02.274Z,95394.00
2023-05-17T11:03:02.306Z,95392.00
2023-05-17T11:04:02.337Z,95392.00
2023-05-17T11:05:02.540Z,95392.00
2023-05-17T11:06:02.443Z,95392.00
2023-05-17T11:07:04.277Z,95391.00
2023-05-17T11:08:02.374Z,95391.00
2023-05-17T11:09:02.388Z,95389.00
2023-05-17T11:10:02.341Z,95389.00
2023-05-17T11:11:02.385Z,95389.00
2023-05-17T11:12:02.378Z,95385.00
2023-05-17T11:13:02.346Z,95388.00
2023-05-17T11:14:02.330Z,95389.00
2023-05-17T11:15:02.340Z,95392.00
2023-05-17T11:16:02.348Z,95390.00
2023-05-17T11:17:02.326Z,95390.00
2023-05-17T11:18:02.453Z,95389.00
2023-05-17T11:19:02.380Z,95389.00
2023-05-17T11:20:02.436Z,95390.00
2023-05-17T11:21:02.432Z,95391.00
2023-05-17T11:22:02.311Z,95390.00
2023-05-17T11:23:02.293Z,95391.00
2023-05-17T11:24:02.304Z,95393.00
2023-05-17T11:25:02.276Z,95390.00
2023-05-17T11:26:12.920Z,95391.00
2023-05-17T11:27:03.250Z,95391.00
2023-05-17T11:28:02.258Z,95394.00
2023-05-17T11:29:02.267Z,95390.00
2023-05-17T11:30:02.286Z,95390.00
2023-05-17T11:31:02.225Z,95390.00
2023-05-17T11:32:02.270Z,95390.00
2023-05-17T11:33:02.213Z,95390.00
2023-05-17T11:34:02.258Z,95393.00
2023-05-17T11:35:02.255Z,95391.00
2023-05-17T11:36:02.180Z,95391.00
2023-05-17T11:37:02.195Z,95387.00
2023-05-17T11:38:02.202Z,95387.00
2023-05-17T11:39:08.073Z,95388.00
2023-05-17T11:40:03.188Z,95384.00
2023-05-17T11:41:02.673Z,95386.00
2023-05-17T11:42:02.174Z,95385.00
2023-05-17T11:43:02.140Z,95384.00
2023-05-17T11:44:02.143Z,95387.00
2023-05-17T11:45:02.161Z,95387.00
2023-05-17T11:46:02.132Z,95386.00
2023-05-17T11:47:02.169Z,95385.00